Polley, Wisconsin
Current Conditions -  °F | °C
As of 12:55 PM on Friday 21 Nov 2014 (Local Time) from KRCX Reporting Station
Scattered Clouds Scattered Clouds  
Wind Chill: 13°   Ceiling: Unl
Heat Index: 24°   Visibility: 10mi
Dew Point:   Wind: 12mph
Humidity: 49%   Direction: 180°S
Pressure: 30.15"   Gusts: NA
Location:  45.2123°N, 90.8091°W
Report Text: KRCX 211855Z AUTO 18010KT 10SM SCT110 M05/M14 A3015 RMK AO2 T10461139
Loading
Personal Weather Stations






























Interactive Weather Map New forecast layout! Learn more

10-Day Weather Forecast

Advertisements
Track Severe Weather on mobile